sensor_id;sensor_type;location;lat;lon;timestamp;P1;durP1;ratioP1;P2;durP2;ratioP2
58661;SDS011;44432;49.786;22.760;2023-06-26T00:01:31;7.70;;;6.10;;
58661;SDS011;44432;49.786;22.760;2023-06-26T00:04:01;8.10;;;6.10;;
58661;SDS011;44432;49.786;22.760;2023-06-26T00:06:32;9.40;;;6.60;;
58661;SDS011;44432;49.786;22.760;2023-06-26T00:09:03;9.50;;;6.50;;
58661;SDS011;44432;49.786;22.760;2023-06-26T00:11:34;8.70;;;6.50;;
58661;SDS011;44432;49.786;22.760;2023-06-26T00:14:05;8.50;;;6.40;;
58661;SDS011;44432;49.786;22.760;2023-06-26T00:16:35;9.90;;;6.50;;
58661;SDS011;44432;49.786;22.760;2023-06-26T00:19:06;11.60;;;7.50;;
58661;SDS011;44432;49.786;22.760;2023-06-26T00:21:37;8.40;;;7.20;;
58661;SDS011;44432;49.786;22.760;2023-06-26T00:24:08;12.10;;;7.50;;
58661;SDS011;44432;49.786;22.760;2023-06-26T00:26:39;11.70;;;6.80;;
58661;SDS011;44432;49.786;22.760;2023-06-26T00:29:09;10.20;;;7.00;;
58661;SDS011;44432;49.786;22.760;2023-06-26T00:31:40;11.10;;;6.50;;
58661;SDS011;44432;49.786;22.760;2023-06-26T00:34:11;10.90;;;6.80;;
58661;SDS011;44432;49.786;22.760;2023-06-26T00:36:42;11.20;;;6.60;;
58661;SDS011;44432;49.786;22.760;2023-06-26T00:39:13;9.10;;;6.10;;
58661;SDS011;44432;49.786;22.760;2023-06-26T00:41:44;10.10;;;6.60;;
58661;SDS011;44432;49.786;22.760;2023-06-26T00:44:15;11.00;;;6.70;;
58661;SDS011;44432;49.786;22.760;2023-06-26T00:46:46;10.50;;;6.80;;
58661;SDS011;44432;49.786;22.760;2023-06-26T00:49:17;10.40;;;7.60;;
58661;SDS011;44432;49.786;22.760;2023-06-26T00:51:48;9.90;;;6.20;;
58661;SDS011;44432;49.786;22.760;2023-06-26T00:54:19;10.40;;;6.70;;
58661;SDS011;44432;49.786;22.760;2023-06-26T00:56:50;10.10;;;6.60;;
58661;SDS011;44432;49.786;22.760;2023-06-26T00:59:21;11.50;;;6.50;;
58661;SDS011;44432;49.786;22.760;2023-06-26T01:01:52;9.60;;;6.70;;
58661;SDS011;44432;49.786;22.760;2023-06-26T01:04:22;7.70;;;6.40;;
58661;SDS011;44432;49.786;22.760;2023-06-26T01:06:55;9.40;;;6.70;;
58661;SDS011;44432;49.786;22.760;2023-06-26T01:09:26;12.10;;;6.60;;
58661;SDS011;44432;49.786;22.760;2023-06-26T01:11:57;11.80;;;6.80;;
58661;SDS011;44432;49.786;22.760;2023-06-26T01:14:28;10.30;;;7.00;;
58661;SDS011;44432;49.786;22.760;2023-06-26T01:17:00;9.00;;;7.00;;
58661;SDS011;44432;49.786;22.760;2023-06-26T01:19:32;8.70;;;6.30;;
58661;SDS011;44432;49.786;22.760;2023-06-26T01:22:06;9.40;;;6.60;;
58661;SDS011;44432;49.786;22.760;2023-06-26T01:24:45;8.90;;;6.50;;
58661;SDS011;44432;49.786;22.760;2023-06-26T01:27:25;10.20;;;6.50;;
58661;SDS011;44432;49.786;22.760;2023-06-26T01:30:00;10.40;;;6.50;;
58661;SDS011;44432;49.786;22.760;2023-06-26T01:32:33;8.40;;;6.60;;
58661;SDS011;44432;49.786;22.760;2023-06-26T01:35:06;9.60;;;6.20;;
58661;SDS011;44432;49.786;22.760;2023-06-26T01:37:38;9.30;;;6.20;;
58661;SDS011;44432;49.786;22.760;2023-06-26T01:40:09;9.20;;;6.40;;
58661;SDS011;44432;49.786;22.760;2023-06-26T01:42:41;10.80;;;6.70;;
58661;SDS011;44432;49.786;22.760;2023-06-26T01:45:12;14.10;;;6.60;;
58661;SDS011;44432;49.786;22.760;2023-06-26T01:47:50;8.20;;;6.50;;
58661;SDS011;44432;49.786;22.760;2023-06-26T01:50:26;11.00;;;6.90;;
58661;SDS011;44432;49.786;22.760;2023-06-26T01:53:01;12.70;;;7.30;;
58661;SDS011;44432;49.786;22.760;2023-06-26T01:55:40;11.50;;;7.50;;
58661;SDS011;44432;49.786;22.760;2023-06-26T01:58:15;13.90;;;7.70;;
58661;SDS011;44432;49.786;22.760;2023-06-26T02:00:48;14.50;;;6.40;;
58661;SDS011;44432;49.786;22.760;2023-06-26T02:03:19;11.40;;;7.20;;
58661;SDS011;44432;49.786;22.760;2023-06-26T02:05:52;12.70;;;7.20;;
58661;SDS011;44432;49.786;22.760;2023-06-26T02:08:22;8.80;;;6.60;;
58661;SDS011;44432;49.786;22.760;2023-06-26T02:10:53;11.20;;;7.10;;
58661;SDS011;44432;49.786;22.760;2023-06-26T02:13:24;9.60;;;6.80;;
58661;SDS011;44432;49.786;22.760;2023-06-26T02:15:54;9.60;;;7.30;;
58661;SDS011;44432;49.786;22.760;2023-06-26T02:18:25;12.40;;;7.20;;
58661;SDS011;44432;49.786;22.760;2023-06-26T02:20:56;12.50;;;8.00;;
58661;SDS011;44432;49.786;22.760;2023-06-26T02:23:27;10.60;;;7.60;;
58661;SDS011;44432;49.786;22.760;2023-06-26T02:25:58;9.80;;;6.80;;
58661;SDS011;44432;49.786;22.760;2023-06-26T02:28:29;13.40;;;7.70;;
58661;SDS011;44432;49.786;22.760;2023-06-26T02:31:01;14.80;;;7.70;;
58661;SDS011;44432;49.786;22.760;2023-06-26T02:33:32;11.40;;;7.00;;
58661;SDS011;44432;49.786;22.760;2023-06-26T02:36:03;10.80;;;6.50;;
58661;SDS011;44432;49.786;22.760;2023-06-26T02:38:34;12.90;;;7.30;;
58661;SDS011;44432;49.786;22.760;2023-06-26T02:41:05;12.30;;;6.70;;
58661;SDS011;44432;49.786;22.760;2023-06-26T02:43:35;9.40;;;7.20;;
58661;SDS011;44432;49.786;22.760;2023-06-26T02:46:06;12.60;;;7.20;;
58661;SDS011;44432;49.786;22.760;2023-06-26T02:48:37;12.90;;;7.80;;
58661;SDS011;44432;49.786;22.760;2023-06-26T02:51:07;11.30;;;7.60;;
58661;SDS011;44432;49.786;22.760;2023-06-26T02:53:38;11.50;;;7.10;;
58661;SDS011;44432;49.786;22.760;2023-06-26T02:56:09;10.40;;;7.50;;
58661;SDS011;44432;49.786;22.760;2023-06-26T02:58:39;11.20;;;7.00;;
58661;SDS011;44432;49.786;22.760;2023-06-26T03:01:11;11.00;;;7.20;;
58661;SDS011;44432;49.786;22.760;2023-06-26T03:03:42;9.20;;;7.50;;
58661;SDS011;44432;49.786;22.760;2023-06-26T03:06:15;11.90;;;7.30;;
58661;SDS011;44432;49.786;22.760;2023-06-26T03:08:45;13.00;;;8.10;;
58661;SDS011;44432;49.786;22.760;2023-06-26T03:11:16;10.30;;;7.40;;
58661;SDS011;44432;49.786;22.760;2023-06-26T03:13:46;11.70;;;6.90;;
58661;SDS011;44432;49.786;22.760;2023-06-26T03:16:17;9.40;;;6.70;;
58661;SDS011;44432;49.786;22.760;2023-06-26T03:18:48;9.20;;;6.90;;
58661;SDS011;44432;49.786;22.760;2023-06-26T03:21:18;11.00;;;7.40;;
58661;SDS011;44432;49.786;22.760;2023-06-26T03:23:49;11.40;;;7.30;;
58661;SDS011;44432;49.786;22.760;2023-06-26T03:26:20;13.50;;;8.10;;
58661;SDS011;44432;49.786;22.760;2023-06-26T03:28:56;14.30;;;7.80;;
58661;SDS011;44432;49.786;22.760;2023-06-26T03:31:26;13.00;;;7.30;;
58661;SDS011;44432;49.786;22.760;2023-06-26T03:33:57;9.80;;;7.00;;
58661;SDS011;44432;49.786;22.760;2023-06-26T03:36:27;12.30;;;7.10;;
58661;SDS011;44432;49.786;22.760;2023-06-26T03:38:58;9.90;;;7.20;;
58661;SDS011;44432;49.786;22.760;2023-06-26T03:41:29;11.00;;;6.70;;
58661;SDS011;44432;49.786;22.760;2023-06-26T03:44:00;9.70;;;7.20;;
58661;SDS011;44432;49.786;22.760;2023-06-26T03:46:31;12.50;;;6.80;;
58661;SDS011;44432;49.786;22.760;2023-06-26T03:49:01;9.40;;;8.10;;
58661;SDS011;44432;49.786;22.760;2023-06-26T03:51:32;11.20;;;7.60;;
58661;SDS011;44432;49.786;22.760;2023-06-26T03:54:03;13.50;;;8.00;;
58661;SDS011;44432;49.786;22.760;2023-06-26T03:56:34;11.30;;;7.80;;
58661;SDS011;44432;49.786;22.760;2023-06-26T03:59:04;10.50;;;7.80;;
58661;SDS011;44432;49.786;22.760;2023-06-26T04:01:36;11.30;;;6.90;;
58661;SDS011;44432;49.786;22.760;2023-06-26T04:04:07;9.50;;;7.10;;
58661;SDS011;44432;49.786;22.760;2023-06-26T04:06:37;11.20;;;7.30;;
58661;SDS011;44432;49.786;22.760;2023-06-26T04:09:08;12.10;;;7.20;;
58661;SDS011;44432;49.786;22.760;2023-06-26T04:11:39;13.90;;;7.80;;
58661;SDS011;44432;49.786;22.760;2023-06-26T04:14:09;10.20;;;7.60;;
58661;SDS011;44432;49.786;22.760;2023-06-26T04:16:40;11.20;;;7.50;;
58661;SDS011;44432;49.786;22.760;2023-06-26T04:19:11;11.40;;;7.90;;
58661;SDS011;44432;49.786;22.760;2023-06-26T04:21:42;11.00;;;7.90;;
58661;SDS011;44432;49.786;22.760;2023-06-26T04:24:13;11.60;;;8.80;;
58661;SDS011;44432;49.786;22.760;2023-06-26T04:26:43;10.30;;;8.00;;
58661;SDS011;44432;49.786;22.760;2023-06-26T04:29:14;12.90;;;7.70;;
58661;SDS011;44432;49.786;22.760;2023-06-26T04:31:44;11.10;;;7.40;;
58661;SDS011;44432;49.786;22.760;2023-06-26T04:34:15;11.40;;;7.60;;
58661;SDS011;44432;49.786;22.760;2023-06-26T04:36:46;10.10;;;7.20;;
58661;SDS011;44432;49.786;22.760;2023-06-26T04:39:18;9.40;;;7.00;;
58661;SDS011;44432;49.786;22.760;2023-06-26T04:41:49;10.30;;;7.90;;
58661;SDS011;44432;49.786;22.760;2023-06-26T04:44:20;14.50;;;8.00;;
58661;SDS011;44432;49.786;22.760;2023-06-26T04:46:51;12.60;;;8.00;;
58661;SDS011;44432;49.786;22.760;2023-06-26T04:49:22;14.40;;;8.90;;
58661;SDS011;44432;49.786;22.760;2023-06-26T04:51:52;12.60;;;7.00;;
58661;SDS011;44432;49.786;22.760;2023-06-26T04:54:23;12.80;;;8.50;;
58661;SDS011;44432;49.786;22.760;2023-06-26T04:56:54;14.90;;;7.80;;
58661;SDS011;44432;49.786;22.760;2023-06-26T04:59:25;10.80;;;7.20;;
58661;SDS011;44432;49.786;22.760;2023-06-26T05:01:56;12.30;;;8.40;;
58661;SDS011;44432;49.786;22.760;2023-06-26T05:04:26;9.60;;;6.90;;
58661;SDS011;44432;49.786;22.760;2023-06-26T05:06:57;9.10;;;7.40;;
58661;SDS011;44432;49.786;22.760;2023-06-26T05:09:28;9.00;;;7.40;;
58661;SDS011;44432;49.786;22.760;2023-06-26T05:11:59;11.80;;;7.20;;
58661;SDS011;44432;49.786;22.760;2023-06-26T05:14:31;12.50;;;7.00;;
58661;SDS011;44432;49.786;22.760;2023-06-26T05:17:01;9.60;;;7.00;;
58661;SDS011;44432;49.786;22.760;2023-06-26T05:19:32;11.90;;;8.30;;
58661;SDS011;44432;49.786;22.760;2023-06-26T05:22:03;10.20;;;8.50;;
58661;SDS011;44432;49.786;22.760;2023-06-26T05:24:36;10.40;;;7.00;;
58661;SDS011;44432;49.786;22.760;2023-06-26T05:27:09;10.80;;;7.50;;
58661;SDS011;44432;49.786;22.760;2023-06-26T05:29:47;9.60;;;7.40;;
58661;SDS011;44432;49.786;22.760;2023-06-26T05:32:18;9.40;;;6.80;;
58661;SDS011;44432;49.786;22.760;2023-06-26T05:34:50;10.60;;;7.50;;
58661;SDS011;44432;49.786;22.760;2023-06-26T05:37:23;8.50;;;6.70;;
58661;SDS011;44432;49.786;22.760;2023-06-26T05:39:55;10.70;;;7.20;;
58661;SDS011;44432;49.786;22.760;2023-06-26T05:42:27;8.30;;;6.70;;
58661;SDS011;44432;49.786;22.760;2023-06-26T05:44:58;11.60;;;7.80;;
58661;SDS011;44432;49.786;22.760;2023-06-26T05:47:29;10.00;;;6.60;;
58661;SDS011;44432;49.786;22.760;2023-06-26T05:50:00;12.10;;;7.00;;
58661;SDS011;44432;49.786;22.760;2023-06-26T05:52:32;9.60;;;7.10;;
58661;SDS011;44432;49.786;22.760;2023-06-26T05:55:04;10.70;;;6.50;;
58661;SDS011;44432;49.786;22.760;2023-06-26T05:57:36;9.90;;;6.70;;
58661;SDS011;44432;49.786;22.760;2023-06-26T06:00:10;10.10;;;6.70;;
58661;SDS011;44432;49.786;22.760;2023-06-26T06:02:42;10.70;;;6.50;;
58661;SDS011;44432;49.786;22.760;2023-06-26T06:05:13;11.20;;;6.40;;
58661;SDS011;44432;49.786;22.760;2023-06-26T06:07:43;9.00;;;6.70;;
58661;SDS011;44432;49.786;22.760;2023-06-26T06:10:14;11.20;;;6.30;;
58661;SDS011;44432;49.786;22.760;2023-06-26T06:12:45;12.20;;;6.70;;
58661;SDS011;44432;49.786;22.760;2023-06-26T06:15:16;7.50;;;6.20;;
58661;SDS011;44432;49.786;22.760;2023-06-26T06:17:47;10.30;;;6.20;;
58661;SDS011;44432;49.786;22.760;2023-06-26T06:20:17;8.40;;;6.20;;
58661;SDS011;44432;49.786;22.760;2023-06-26T06:22:49;8.50;;;6.00;;
58661;SDS011;44432;49.786;22.760;2023-06-26T06:25:19;10.50;;;6.70;;
58661;SDS011;44432;49.786;22.760;2023-06-26T06:27:50;8.90;;;6.40;;
58661;SDS011;44432;49.786;22.760;2023-06-26T06:30:20;6.80;;;5.60;;
58661;SDS011;44432;49.786;22.760;2023-06-26T06:32:51;7.60;;;5.50;;
58661;SDS011;44432;49.786;22.760;2023-06-26T06:35:22;13.20;;;6.10;;
58661;SDS011;44432;49.786;22.760;2023-06-26T06:37:53;10.20;;;5.70;;
58661;SDS011;44432;49.786;22.760;2023-06-26T06:40:24;9.10;;;6.60;;
58661;SDS011;44432;49.786;22.760;2023-06-26T06:42:55;7.70;;;5.60;;
58661;SDS011;44432;49.786;22.760;2023-06-26T06:45:25;7.90;;;5.70;;
58661;SDS011;44432;49.786;22.760;2023-06-26T06:47:56;7.00;;;5.30;;
58661;SDS011;44432;49.786;22.760;2023-06-26T06:50:26;8.20;;;6.10;;
58661;SDS011;44432;49.786;22.760;2023-06-26T06:52:57;9.10;;;6.60;;
58661;SDS011;44432;49.786;22.760;2023-06-26T06:55:28;6.90;;;5.10;;
58661;SDS011;44432;49.786;22.760;2023-06-26T06:57:58;7.70;;;5.20;;
58661;SDS011;44432;49.786;22.760;2023-06-26T07:00:29;7.20;;;5.10;;
58661;SDS011;44432;49.786;22.760;2023-06-26T07:03:00;9.40;;;6.50;;
58661;SDS011;44432;49.786;22.760;2023-06-26T07:05:32;8.70;;;4.90;;
58661;SDS011;44432;49.786;22.760;2023-06-26T07:08:03;8.30;;;5.50;;
58661;SDS011;44432;49.786;22.760;2023-06-26T07:10:33;5.90;;;5.00;;
58661;SDS011;44432;49.786;22.760;2023-06-26T07:13:04;8.20;;;5.80;;
58661;SDS011;44432;49.786;22.760;2023-06-26T07:15:35;6.80;;;5.00;;
58661;SDS011;44432;49.786;22.760;2023-06-26T07:18:06;8.00;;;4.70;;
58661;SDS011;44432;49.786;22.760;2023-06-26T07:20:36;6.30;;;4.40;;
58661;SDS011;44432;49.786;22.760;2023-06-26T07:23:07;8.50;;;4.60;;
58661;SDS011;44432;49.786;22.760;2023-06-26T07:25:38;5.90;;;4.40;;
58661;SDS011;44432;49.786;22.760;2023-06-26T07:28:11;7.80;;;4.90;;
58661;SDS011;44432;49.786;22.760;2023-06-26T07:30:42;7.50;;;4.60;;
58661;SDS011;44432;49.786;22.760;2023-06-26T07:33:12;6.80;;;4.40;;
58661;SDS011;44432;49.786;22.760;2023-06-26T07:35:43;8.20;;;5.10;;
58661;SDS011;44432;49.786;22.760;2023-06-26T07:38:13;6.70;;;4.70;;
58661;SDS011;44432;49.786;22.760;2023-06-26T07:40:44;6.20;;;4.40;;
58661;SDS011;44432;49.786;22.760;2023-06-26T07:43:15;7.80;;;4.40;;
58661;SDS011;44432;49.786;22.760;2023-06-26T07:45:45;6.50;;;4.50;;
58661;SDS011;44432;49.786;22.760;2023-06-26T07:48:16;6.20;;;3.90;;
58661;SDS011;44432;49.786;22.760;2023-06-26T07:50:47;5.10;;;3.80;;
58661;SDS011;44432;49.786;22.760;2023-06-26T07:53:17;4.30;;;3.70;;
58661;SDS011;44432;49.786;22.760;2023-06-26T07:55:48;7.40;;;3.30;;
58661;SDS011;44432;49.786;22.760;2023-06-26T07:58:19;6.80;;;3.90;;
58661;SDS011;44432;49.786;22.760;2023-06-26T08:00:49;5.30;;;4.00;;
58661;SDS011;44432;49.786;22.760;2023-06-26T08:03:20;4.60;;;3.60;;
58661;SDS011;44432;49.786;22.760;2023-06-26T08:05:51;5.10;;;3.70;;
58661;SDS011;44432;49.786;22.760;2023-06-26T08:08:21;6.30;;;3.50;;
58661;SDS011;44432;49.786;22.760;2023-06-26T08:10:52;6.00;;;4.00;;
58661;SDS011;44432;49.786;22.760;2023-06-26T08:13:22;5.30;;;4.00;;
58661;SDS011;44432;49.786;22.760;2023-06-26T08:15:53;4.80;;;3.70;;
58661;SDS011;44432;49.786;22.760;2023-06-26T08:18:24;5.50;;;3.70;;
58661;SDS011;44432;49.786;22.760;2023-06-26T08:20:54;5.90;;;4.00;;
58661;SDS011;44432;49.786;22.760;2023-06-26T08:23:25;6.40;;;4.00;;
58661;SDS011;44432;49.786;22.760;2023-06-26T08:25:56;6.00;;;3.70;;
58661;SDS011;44432;49.786;22.760;2023-06-26T08:28:26;6.00;;;4.10;;
58661;SDS011;44432;49.786;22.760;2023-06-26T08:30:57;5.60;;;3.90;;
58661;SDS011;44432;49.786;22.760;2023-06-26T08:33:28;7.00;;;4.00;;
58661;SDS011;44432;49.786;22.760;2023-06-26T08:35:59;6.00;;;3.90;;
58661;SDS011;44432;49.786;22.760;2023-06-26T08:38:29;7.00;;;3.50;;
58661;SDS011;44432;49.786;22.760;2023-06-26T08:41:00;5.90;;;3.70;;
58661;SDS011;44432;49.786;22.760;2023-06-26T08:43:31;6.30;;;3.80;;
58661;SDS011;44432;49.786;22.760;2023-06-26T08:46:02;7.20;;;4.40;;
58661;SDS011;44432;49.786;22.760;2023-06-26T08:48:33;6.90;;;4.50;;
58661;SDS011;44432;49.786;22.760;2023-06-26T08:51:05;7.40;;;4.50;;
58661;SDS011;44432;49.786;22.760;2023-06-26T08:53:42;5.90;;;3.70;;
58661;SDS011;44432;49.786;22.760;2023-06-26T08:56:18;5.10;;;4.10;;
58661;SDS011;44432;49.786;22.760;2023-06-26T08:58:51;6.30;;;3.60;;
58661;SDS011;44432;49.786;22.760;2023-06-26T09:01:22;6.70;;;3.70;;
58661;SDS011;44432;49.786;22.760;2023-06-26T09:03:53;5.10;;;3.90;;
58661;SDS011;44432;49.786;22.760;2023-06-26T09:06:23;6.20;;;4.00;;
58661;SDS011;44432;49.786;22.760;2023-06-26T09:08:54;5.80;;;4.10;;
58661;SDS011;44432;49.786;22.760;2023-06-26T09:11:25;7.90;;;4.30;;
58661;SDS011;44432;49.786;22.760;2023-06-26T09:13:58;8.20;;;4.50;;
58661;SDS011;44432;49.786;22.760;2023-06-26T09:16:33;6.40;;;4.40;;
58661;SDS011;44432;49.786;22.760;2023-06-26T09:19:11;6.80;;;4.50;;
58661;SDS011;44432;49.786;22.760;2023-06-26T09:21:42;6.70;;;5.40;;
58661;SDS011;44432;49.786;22.760;2023-06-26T09:24:13;5.60;;;4.20;;
58661;SDS011;44432;49.786;22.760;2023-06-26T09:26:45;5.70;;;4.30;;
58661;SDS011;44432;49.786;22.760;2023-06-26T09:29:15;8.00;;;6.00;;
58661;SDS011;44432;49.786;22.760;2023-06-26T09:31:48;8.20;;;4.80;;
58661;SDS011;44432;49.786;22.760;2023-06-26T09:34:31;5.80;;;4.80;;
58661;SDS011;44432;49.786;22.760;2023-06-26T09:37:02;10.80;;;4.50;;
58661;SDS011;44432;49.786;22.760;2023-06-26T09:39:33;7.10;;;4.50;;
58661;SDS011;44432;49.786;22.760;2023-06-26T09:42:04;6.10;;;4.30;;
58661;SDS011;44432;49.786;22.760;2023-06-26T09:44:35;6.80;;;4.40;;
58661;SDS011;44432;49.786;22.760;2023-06-26T09:47:12;7.50;;;4.90;;
58661;SDS011;44432;49.786;22.760;2023-06-26T09:49:44;6.20;;;4.40;;
58661;SDS011;44432;49.786;22.760;2023-06-26T09:52:16;5.50;;;4.20;;
58661;SDS011;44432;49.786;22.760;2023-06-26T09:54:47;5.10;;;4.10;;
58661;SDS011;44432;49.786;22.760;2023-06-26T09:57:18;7.20;;;4.60;;
58661;SDS011;44432;49.786;22.760;2023-06-26T09:59:49;8.10;;;4.30;;
58661;SDS011;44432;49.786;22.760;2023-06-26T10:02:20;6.60;;;4.50;;
58661;SDS011;44432;49.786;22.760;2023-06-26T10:04:51;7.50;;;4.90;;
58661;SDS011;44432;49.786;22.760;2023-06-26T10:07:21;5.70;;;4.20;;
58661;SDS011;44432;49.786;22.760;2023-06-26T10:09:53;7.00;;;4.60;;
58661;SDS011;44432;49.786;22.760;2023-06-26T10:12:27;8.60;;;4.10;;
58661;SDS011;44432;49.786;22.760;2023-06-26T10:17:30;6.90;;;4.10;;
58661;SDS011;44432;49.786;22.760;2023-06-26T10:20:03;6.10;;;4.10;;
58661;SDS011;44432;49.786;22.760;2023-06-26T10:22:37;5.70;;;4.10;;
58661;SDS011;44432;49.786;22.760;2023-06-26T10:25:11;7.50;;;4.50;;
58661;SDS011;44432;49.786;22.760;2023-06-26T10:27:47;6.30;;;4.70;;
58661;SDS011;44432;49.786;22.760;2023-06-26T10:30:23;6.90;;;4.50;;
58661;SDS011;44432;49.786;22.760;2023-06-26T10:32:56;7.90;;;6.00;;
58661;SDS011;44432;49.786;22.760;2023-06-26T10:35:29;7.00;;;4.90;;
58661;SDS011;44432;49.786;22.760;2023-06-26T10:38:03;7.90;;;4.70;;
58661;SDS011;44432;49.786;22.760;2023-06-26T10:40:41;5.40;;;4.10;;
58661;SDS011;44432;49.786;22.760;2023-06-26T10:43:14;7.90;;;4.70;;
58661;SDS011;44432;49.786;22.760;2023-06-26T10:45:46;8.50;;;5.20;;
58661;SDS011;44432;49.786;22.760;2023-06-26T10:48:21;9.30;;;5.10;;
58661;SDS011;44432;49.786;22.760;2023-06-26T10:50:57;10.60;;;4.90;;
58661;SDS011;44432;49.786;22.760;2023-06-26T10:53:41;7.40;;;5.00;;
58661;SDS011;44432;49.786;22.760;2023-06-26T10:56:14;7.20;;;4.80;;
58661;SDS011;44432;49.786;22.760;2023-06-26T10:58:45;7.50;;;4.70;;
58661;SDS011;44432;49.786;22.760;2023-06-26T11:01:23;6.90;;;4.90;;
58661;SDS011;44432;49.786;22.760;2023-06-26T11:04:05;6.50;;;4.40;;
58661;SDS011;44432;49.786;22.760;2023-06-26T11:06:38;5.70;;;3.90;;
58661;SDS011;44432;49.786;22.760;2023-06-26T11:09:10;4.80;;;3.70;;
58661;SDS011;44432;49.786;22.760;2023-06-26T11:11:59;5.80;;;4.40;;
58661;SDS011;44432;49.786;22.760;2023-06-26T11:14:36;6.00;;;4.30;;
58661;SDS011;44432;49.786;22.760;2023-06-26T11:17:07;5.60;;;4.20;;
58661;SDS011;44432;49.786;22.760;2023-06-26T11:19:38;8.20;;;4.60;;
58661;SDS011;44432;49.786;22.760;2023-06-26T11:22:13;6.40;;;4.60;;
58661;SDS011;44432;49.786;22.760;2023-06-26T11:24:45;10.00;;;4.90;;
58661;SDS011;44432;49.786;22.760;2023-06-26T11:27:17;4.30;;;3.50;;
58661;SDS011;44432;49.786;22.760;2023-06-26T11:29:51;7.10;;;4.60;;
58661;SDS011;44432;49.786;22.760;2023-06-26T11:32:21;7.00;;;5.00;;
58661;SDS011;44432;49.786;22.760;2023-06-26T11:34:54;5.90;;;4.10;;
58661;SDS011;44432;49.786;22.760;2023-06-26T11:37:25;6.40;;;4.50;;
58661;SDS011;44432;49.786;22.760;2023-06-26T11:39:56;7.90;;;4.60;;
58661;SDS011;44432;49.786;22.760;2023-06-26T11:42:27;5.70;;;4.10;;
58661;SDS011;44432;49.786;22.760;2023-06-26T11:44:58;6.70;;;4.40;;
58661;SDS011;44432;49.786;22.760;2023-06-26T11:47:31;9.00;;;4.50;;
58661;SDS011;44432;49.786;22.760;2023-06-26T11:50:01;7.00;;;4.60;;
58661;SDS011;44432;49.786;22.760;2023-06-26T11:52:34;7.10;;;4.50;;
58661;SDS011;44432;49.786;22.760;2023-06-26T11:55:06;5.20;;;4.10;;
58661;SDS011;44432;49.786;22.760;2023-06-26T12:00:11;7.60;;;4.40;;
58661;SDS011;44432;49.786;22.760;2023-06-26T12:02:43;6.40;;;4.40;;
58661;SDS011;44432;49.786;22.760;2023-06-26T12:05:15;8.80;;;5.00;;
58661;SDS011;44432;49.786;22.760;2023-06-26T12:07:47;6.00;;;4.60;;
58661;SDS011;44432;49.786;22.760;2023-06-26T12:10:18;5.70;;;4.90;;
58661;SDS011;44432;49.786;22.760;2023-06-26T12:12:49;8.40;;;5.20;;
58661;SDS011;44432;49.786;22.760;2023-06-26T12:15:20;5.00;;;4.50;;
58661;SDS011;44432;49.786;22.760;2023-06-26T12:17:51;8.50;;;5.10;;
58661;SDS011;44432;49.786;22.760;2023-06-26T12:20:22;7.40;;;5.20;;
58661;SDS011;44432;49.786;22.760;2023-06-26T12:22:54;9.60;;;5.30;;
58661;SDS011;44432;49.786;22.760;2023-06-26T12:25:25;8.80;;;5.30;;
58661;SDS011;44432;49.786;22.760;2023-06-26T12:27:55;6.30;;;4.50;;
58661;SDS011;44432;49.786;22.760;2023-06-26T12:30:26;6.40;;;4.80;;
58661;SDS011;44432;49.786;22.760;2023-06-26T12:32:57;6.70;;;5.00;;
58661;SDS011;44432;49.786;22.760;2023-06-26T12:35:28;7.60;;;5.80;;
58661;SDS011;44432;49.786;22.760;2023-06-26T12:38:01;6.90;;;5.30;;
58661;SDS011;44432;49.786;22.760;2023-06-26T12:40:39;7.40;;;5.10;;
58661;SDS011;44432;49.786;22.760;2023-06-26T12:43:23;9.20;;;5.30;;
58661;SDS011;44432;49.786;22.760;2023-06-26T12:45:55;6.90;;;5.00;;
58661;SDS011;44432;49.786;22.760;2023-06-26T12:48:37;7.10;;;5.40;;
58661;SDS011;44432;49.786;22.760;2023-06-26T12:51:11;9.80;;;4.90;;
58661;SDS011;44432;49.786;22.760;2023-06-26T12:53:43;7.20;;;5.80;;
58661;SDS011;44432;49.786;22.760;2023-06-26T12:56:14;7.00;;;5.50;;
58661;SDS011;44432;49.786;22.760;2023-06-26T12:58:45;8.10;;;5.00;;
58661;SDS011;44432;49.786;22.760;2023-06-26T13:01:15;6.30;;;4.50;;
58661;SDS011;44432;49.786;22.760;2023-06-26T13:03:47;7.10;;;4.70;;
58661;SDS011;44432;49.786;22.760;2023-06-26T13:06:18;5.90;;;4.50;;
58661;SDS011;44432;49.786;22.760;2023-06-26T13:08:49;5.80;;;4.50;;
58661;SDS011;44432;49.786;22.760;2023-06-26T13:11:20;7.10;;;4.70;;
58661;SDS011;44432;49.786;22.760;2023-06-26T13:13:51;10.30;;;5.40;;
58661;SDS011;44432;49.786;22.760;2023-06-26T13:16:22;6.30;;;4.60;;
58661;SDS011;44432;49.786;22.760;2023-06-26T13:18:52;8.50;;;4.50;;
58661;SDS011;44432;49.786;22.760;2023-06-26T13:21:23;6.10;;;4.50;;
58661;SDS011;44432;49.786;22.760;2023-06-26T13:23:54;6.70;;;4.50;;
58661;SDS011;44432;49.786;22.760;2023-06-26T13:26:27;6.80;;;4.20;;
58661;SDS011;44432;49.786;22.760;2023-06-26T13:28:57;6.90;;;4.10;;
58661;SDS011;44432;49.786;22.760;2023-06-26T13:31:28;6.50;;;4.60;;
58661;SDS011;44432;49.786;22.760;2023-06-26T13:33:59;6.10;;;4.40;;
58661;SDS011;44432;49.786;22.760;2023-06-26T13:36:31;6.20;;;4.60;;
58661;SDS011;44432;49.786;22.760;2023-06-26T13:39:02;6.40;;;4.60;;
58661;SDS011;44432;49.786;22.760;2023-06-26T13:41:33;5.50;;;4.00;;
58661;SDS011;44432;49.786;22.760;2023-06-26T13:44:04;6.70;;;4.60;;
58661;SDS011;44432;49.786;22.760;2023-06-26T13:46:34;8.40;;;4.60;;
58661;SDS011;44432;49.786;22.760;2023-06-26T13:49:05;6.00;;;4.50;;
58661;SDS011;44432;49.786;22.760;2023-06-26T13:51:36;8.40;;;4.40;;
58661;SDS011;44432;49.786;22.760;2023-06-26T13:54:13;6.70;;;4.60;;
58661;SDS011;44432;49.786;22.760;2023-06-26T13:56:43;7.10;;;4.90;;
58661;SDS011;44432;49.786;22.760;2023-06-26T13:59:14;6.30;;;4.30;;
58661;SDS011;44432;49.786;22.760;2023-06-26T14:01:45;6.70;;;4.40;;
58661;SDS011;44432;49.786;22.760;2023-06-26T14:04:17;5.80;;;4.50;;
58661;SDS011;44432;49.786;22.760;2023-06-26T14:06:48;6.70;;;4.20;;
58661;SDS011;44432;49.786;22.760;2023-06-26T14:09:19;5.70;;;4.50;;
58661;SDS011;44432;49.786;22.760;2023-06-26T14:11:50;7.00;;;4.80;;
58661;SDS011;44432;49.786;22.760;2023-06-26T14:14:21;7.50;;;4.40;;
58661;SDS011;44432;49.786;22.760;2023-06-26T14:16:53;9.10;;;4.60;;
58661;SDS011;44432;49.786;22.760;2023-06-26T14:19:24;6.60;;;4.50;;
58661;SDS011;44432;49.786;22.760;2023-06-26T14:21:55;5.10;;;4.10;;
58661;SDS011;44432;49.786;22.760;2023-06-26T14:24:27;5.70;;;4.00;;
58661;SDS011;44432;49.786;22.760;2023-06-26T14:26:58;4.40;;;3.70;;
58661;SDS011;44432;49.786;22.760;2023-06-26T14:29:29;8.20;;;4.20;;
58661;SDS011;44432;49.786;22.760;2023-06-26T14:32:00;5.00;;;3.50;;
58661;SDS011;44432;49.786;22.760;2023-06-26T14:34:31;8.60;;;4.30;;
58661;SDS011;44432;49.786;22.760;2023-06-26T14:37:01;7.00;;;3.40;;
58661;SDS011;44432;49.786;22.760;2023-06-26T14:39:33;3.80;;;3.30;;
58661;SDS011;44432;49.786;22.760;2023-06-26T14:42:06;8.20;;;3.60;;
58661;SDS011;44432;49.786;22.760;2023-06-26T14:44:38;3.70;;;3.10;;
58661;SDS011;44432;49.786;22.760;2023-06-26T14:47:08;4.70;;;3.10;;
58661;SDS011;44432;49.786;22.760;2023-06-26T14:49:39;5.30;;;3.30;;
58661;SDS011;44432;49.786;22.760;2023-06-26T14:52:10;4.90;;;3.70;;
58661;SDS011;44432;49.786;22.760;2023-06-26T14:54:40;3.90;;;3.20;;
58661;SDS011;44432;49.786;22.760;2023-06-26T14:57:11;5.50;;;3.60;;
58661;SDS011;44432;49.786;22.760;2023-06-26T14:59:42;5.50;;;3.50;;
58661;SDS011;44432;49.786;22.760;2023-06-26T15:02:12;4.20;;;3.60;;